Airfield :
LOGIN :

Register | Disclaimer

   EN    FR    IT 

 










Legend :    VFR   Marginal VFR   IFR   Intensive IFR   Very Intensive IFR
Visi :
Ceiling :
>= 8 km
>= 3000ft
5 to 8 km
1000 to 3000 ft
1500m to 5 km
500 to 1000 ft
800 to 1500m
200 to 500 ft
< 800m
< 200 ft
Symbols :   Thunderstorms  Fog  Heavy snow  Heavy precipitations  Wind > 20 kt
SIGMETs :     Misc.  Thunderstorms  Icing  Turbulence  Mountain Waves  Volcanic Ashes






- Airport Elevation : 1197 ft
- IATA code : SPM


ETAD - Spangdahlem Ab

CURRENT METAR :
  • 271726Z AUTO 30009KT 9999 -SN OVC020 01/01 A2938 RMK AO2 PRESRR SLP956 $

EXPIRED METARs :
  • 271711Z AUTO 30007KT 8000 -SN BR OVC016 00/00 A2935 RMK AO2 VIS 4000 RWY05 CIG 014 RWY05 PRESRR SLP946 $
  • 271656Z AUTO 30007KT 9000 -SN BR OVC016 00/00 A2932 RMK AO2 CIG 013 RWY05 PRESRR SLP935 P0000 T00040003
  • 271641Z AUTO 31005KT 6000 -SN BR FEW003 00/00 A2929 RMK AO2 VIS 3200 RWY05 PRESRR SLP925 $
  • 271626Z AUTO 34005KT 4000 -SN BR FEW003 OVC011 00/00 A2926 RMK AO2 VIS 3200V4000 CIG 010 RWY05 CIG 005 RWY24 PRESRR SLP915 $
  • 271611Z AUTO 36006KT 2800 -SN BR FEW002 OVC007 00/00 A2924 RMK AO2 VIS 2800V3600 VIS 1800 RWY05/23 CIG 006 RWY05 CIG 004 RWY24 PRESRR SLP908 $
  • 271556Z AUTO 02007KT 3200 -SN BR BKN002 OVC007 00/00 A2922 RMK AO2 VIS 2200V3200 VIS 1200 RWY05/23 BKN V OVC SLP901 P0000 T00020001 $
  • 271548Z AUTO 02007KT 2600 -SN BR BKN002 OVC007 00/00 A2921 RMK AO2 VIS 1600 RWY05 VIS 0800 RWY05/23 BKN V OVC SLP898 $
  • 271533Z AUTO 04007KT 1800 -SN BR OVC002 00/00 A2920 RMK AO2 VIS 0800V1800 VIS 0800 RWY05/23 SLP894 $
  • 271456Z AUTO 05008KT 1200 R23/1300V1500 -SN BR OVC002 00/00 A2919 RMK AO2 SLP891 P0001 60001 T10011002 57058 $
  • 271449Z AUTO 06008KT 1000 R23/1000V1300 -SN BR OVC002 00/00 A2919 RMK AO2 SLP891 $
  • 271441Z AUTO 05008KT 0800 R23/0900V1000 -SN FG OVC003 00/00 A2919 RMK AO2 CIG 002 RWY24 SLP891 $

TAF AMD TAF ETAD
Valid from the 27 at 16:00 until the 28 at 19:00 UTC


271618Z 2716/2819 34008KT 1200 -SN SCT002 OVC009 640039 QNH2926INS
BECMG 2718/2719 30015G25KT 9999 NSW BKN010 620109 QNH2956INS
TEMPO 2719/2723 30020G35KT 520009
BECMG 2723/2724 27012G18KT 9999 SCT015 QNH2982INS
BECMG 2805/2806 25008KT 9999 BKN005 620059 QNH2991INS
BECMG 2811/2812 20010G15KT 9999 SCT007 BKN100 QNH2995INS
BECMG 2818/2819 18012G18KT 8000 -SHRA BKN020 QNH2995INS TX03/2813Z TNM03/2806Z



MET'MAP, your aeronautical weather chart ! - Copyright ORBIFLY December 2007 - Disclaimer

ORBIFLY MET'MAP TEAM :

Programming & Development : Alexandra Zaïnal
Concept & original design : Baudouin d'Aumeries
Assistance for programming : Marc-Olivier Méhu
Technical & hardware support : Manuel Goepfert

Contact : metmap@orbifly.com




SOURCES & CREDITS :

   NOAA